Time;durP1;ratioP1;P1;durP2;ratioP2;P2;SDS_P1;SDS_P2;PMS_P1;PMS_P2;Temp;Humidity;BMP_temperature;BMP_pressure;BME280_temperature;BME280_humidity;BME280_pressure;Samples;Min_cycle;Max_cycle;Signal;HPM_P1;HPM_P2
2023/06/03 00:01:32;;;;;;;;;;;;;;;14.74;100.00;96995.14;110268;1245;59706;-72
2023/06/03 00:04:00;;;;;;;;;;;;;;;14.71;100.00;96991.66;110235;1244;59806;-72
2023/06/03 00:06:28;;;;;;;;;;;;;;;14.71;100.00;96996.86;110263;1244;71278;-73
2023/06/03 00:08:56;;;;;;;;;;;;;;;14.70;100.00;96995.14;110256;1245;69366;-73
2023/06/03 00:11:25;;;;;;;;;;;;;;;14.71;100.00;96993.23;110219;1245;69304;-72
2023/06/03 00:13:52;;;;;;;;;;;;;;;14.75;100.00;96996.24;110196;1242;59731;-72
2023/06/03 00:16:20;;;;;;;;;;;;;;;14.78;100.00;96988.89;110101;1243;59669;-73
2023/06/03 00:18:48;;;;;;;;;;;;;;;14.82;100.00;96991.20;110284;1244;71421;-72
2023/06/03 00:21:17;;;;;;;;;;;;;;;14.81;100.00;96991.64;110312;1244;68370;-72
2023/06/03 00:23:48;;;;;;;;;;;;;;;14.80;100.00;96992.45;110111;1245;69741;-71
2023/06/03 00:26:16;;;;;;;;;;;;;;;14.77;100.00;96989.33;110212;1244;59669;-72
2023/06/03 00:28:45;;;;;;;;;;;;;;;14.75;100.00;96987.95;110294;1244;59715;-72
2023/06/03 00:31:15;;;;;;;;;;;;;;;14.73;100.00;96988.13;110149;1244;70519;-72
2023/06/03 00:33:44;;;;;;;;;;;;;;;14.73;100.00;96985.20;110064;1245;69779;-72
2023/06/03 00:36:13;;;;;;;;;;;;;;;14.74;100.00;96979.27;110145;1246;69764;-72
2023/06/03 00:38:42;;;;;;;;;;;;;;;14.77;100.00;96979.95;110107;1245;59727;-72
2023/06/03 00:41:10;;;;;;;;;;;;;;;14.80;100.00;96978.27;110147;1245;59777;-71
2023/06/03 00:43:39;;;;;;;;;;;;;;;14.80;100.00;96975.92;110084;1246;70482;-73
2023/06/03 00:46:10;;;;;;;;;;;;;;;14.80;100.00;96975.12;110090;1246;68393;-72
2023/06/03 00:48:39;;;;;;;;;;;;;;;14.77;100.00;96971.63;110085;1245;68356;-72
2023/06/03 00:51:07;;;;;;;;;;;;;;;14.74;100.00;96967.52;110083;1246;59816;-72
2023/06/03 00:53:38;;;;;;;;;;;;;;;14.71;100.00;96967.17;110120;1246;59668;-72
2023/06/03 00:56:07;;;;;;;;;;;;;;;14.69;100.00;96961.73;110200;1244;71972;-72
2023/06/03 00:58:35;;;;;;;;;;;;;;;14.66;100.00;96959.41;110279;1241;68515;-72
2023/06/03 01:01:05;;;;;;;;;;;;;;;14.63;100.00;96957.77;110217;1246;68863;-72
2023/06/03 01:03:37;;;;;;;;;;;;;;;14.61;100.00;96960.95;110157;1245;59773;-72
2023/06/03 01:06:14;;;;;;;;;;;;;;;14.61;100.00;96968.16;110285;1245;59641;-71
2023/06/03 01:08:54;;;;;;;;;;;;;;;14.59;100.00;96989.58;110158;1251;71471;-72
2023/06/03 01:11:30;;;;;;;;;;;;;;;14.53;100.00;96983.43;110140;1245;69260;-71
2023/06/03 01:14:21;;;;;;;;;;;;;;;14.52;100.00;96975.33;110261;1246;69049;-71
2023/06/03 01:16:52;;;;;;;;;;;;;;;14.54;100.00;96990.23;110087;1243;59746;-72
2023/06/03 01:19:36;;;;;;;;;;;;;;;14.55;100.00;96984.98;110139;1246;59691;-71
2023/06/03 01:22:07;;;;;;;;;;;;;;;14.57;100.00;96978.52;109816;1245;71269;-72
2023/06/03 01:24:37;;;;;;;;;;;;;;;14.60;100.00;96992.92;110260;1244;69234;-71
2023/06/03 01:27:05;;;;;;;;;;;;;;;14.62;100.00;96976.23;110204;1241;67972;-72
2023/06/03 01:29:33;;;;;;;;;;;;;;;14.63;100.00;96969.37;110232;1244;59637;-72
2023/06/03 01:32:03;;;;;;;;;;;;;;;14.62;100.00;96982.65;110134;1244;59797;-73
2023/06/03 01:34:33;;;;;;;;;;;;;;;14.59;100.00;96973.04;110142;1242;71339;-72
2023/06/03 01:37:02;;;;;;;;;;;;;;;14.58;100.00;96975.13;110271;1241;69213;-72
2023/06/03 01:39:32;;;;;;;;;;;;;;;14.57;100.00;96979.59;110243;1242;68526;-72
2023/06/03 01:42:01;;;;;;;;;;;;;;;14.54;100.00;96975.67;109984;1245;59728;-72
2023/06/03 01:44:29;;;;;;;;;;;;;;;14.50;100.00;96972.86;110275;1245;59744;-73
2023/06/03 01:46:59;;;;;;;;;;;;;;;14.46;100.00;96968.27;109780;1248;70835;-71
2023/06/03 01:49:31;;;;;;;;;;;;;;;14.43;100.00;96962.50;109927;1250;68505;-72
2023/06/03 01:52:00;;;;;;;;;;;;;;;14.37;100.00;96967.20;109731;1245;69205;-71
2023/06/03 01:54:30;;;;;;;;;;;;;;;14.32;100.00;96968.22;109747;1246;59695;-72
2023/06/03 01:57:02;;;;;;;;;;;;;;;14.25;100.00;96962.77;110188;1245;59613;-71
2023/06/03 01:59:33;;;;;;;;;;;;;;;14.19;100.00;96970.16;110160;1241;71377;-73
2023/06/03 02:02:04;;;;;;;;;;;;;;;14.14;100.00;96974.53;110277;1246;70232;-72
2023/06/03 02:04:34;;;;;;;;;;;;;;;14.08;100.00;96977.84;110265;1244;69236;-73
2023/06/03 02:07:06;;;;;;;;;;;;;;;14.04;100.00;96981.06;110257;1242;59736;-72
2023/06/03 02:09:37;;;;;;;;;;;;;;;14.01;100.00;96987.96;110272;1242;59715;-71
2023/06/03 02:12:08;;;;;;;;;;;;;;;13.96;100.00;96990.75;109951;1249;71347;-72
2023/06/03 02:14:38;;;;;;;;;;;;;;;13.93;100.00;96998.89;109833;1245;68145;-70
2023/06/03 02:17:11;;;;;;;;;;;;;;;13.86;100.00;97006.00;109819;1248;69319;-71
2023/06/03 02:19:41;;;;;;;;;;;;;;;13.81;100.00;97006.48;110125;1246;59725;-71
2023/06/03 02:22:17;;;;;;;;;;;;;;;13.75;100.00;97006.36;110101;1241;59726;-72
2023/06/03 02:24:49;;;;;;;;;;;;;;;13.71;100.00;97010.37;110270;1241;70618;-71
2023/06/03 02:27:24;;;;;;;;;;;;;;;13.67;100.00;97011.40;109935;1242;68581;-72
2023/06/03 02:29:55;;;;;;;;;;;;;;;13.65;100.00;97010.80;110093;1245;68508;-72
2023/06/03 02:32:25;;;;;;;;;;;;;;;13.62;100.00;97010.47;109866;1245;59747;-72
2023/06/03 02:34:55;;;;;;;;;;;;;;;13.60;100.00;97018.24;110135;1245;59609;-73
2023/06/03 02:37:27;;;;;;;;;;;;;;;13.57;100.00;97019.87;110123;1241;71321;-72
2023/06/03 02:39:56;;;;;;;;;;;;;;;13.54;100.00;97025.59;110247;1241;69293;-70
2023/06/03 02:42:28;;;;;;;;;;;;;;;13.52;100.00;97031.80;110062;1245;69169;-71
2023/06/03 02:45:00;;;;;;;;;;;;;;;13.50;100.00;97032.62;109847;1246;59712;-71
2023/06/03 02:47:28;;;;;;;;;;;;;;;13.49;100.00;97039.33;110101;1244;59687;-71
2023/06/03 02:49:58;;;;;;;;;;;;;;;13.45;100.00;97040.40;110125;1245;70716;-72
2023/06/03 02:52:26;;;;;;;;;;;;;;;13.42;100.00;97042.27;109809;1247;67797;-72
2023/06/03 02:54:55;;;;;;;;;;;;;;;13.41;100.00;97048.83;109820;1252;69935;-71
2023/06/03 02:57:23;;;;;;;;;;;;;;;13.40;100.00;97059.58;109805;1245;59759;-72
2023/06/03 02:59:55;;;;;;;;;;;;;;;13.38;100.00;97062.41;109726;1245;59678;-73
2023/06/03 03:02:25;;;;;;;;;;;;;;;13.35;100.00;97069.28;109770;1252;72090;-71
2023/06/03 03:04:53;;;;;;;;;;;;;;;13.32;100.00;97066.95;110064;1248;69288;-73
2023/06/03 03:07:26;;;;;;;;;;;;;;;13.30;100.00;97065.91;110140;1254;69322;-72
2023/06/03 03:09:56;;;;;;;;;;;;;;;13.29;100.00;97064.96;110114;1245;59734;-72
2023/06/03 03:12:24;;;;;;;;;;;;;;;13.28;100.00;97062.79;110126;1245;59737;-72
2023/06/03 03:14:53;;;;;;;;;;;;;;;13.24;100.00;97064.88;110154;1246;70511;-72
2023/06/03 03:17:22;;;;;;;;;;;;;;;13.19;100.00;97065.48;110270;1245;69181;-71
2023/06/03 03:19:51;;;;;;;;;;;;;;;13.18;100.00;97064.70;110227;1245;69265;-71
2023/06/03 03:22:19;;;;;;;;;;;;;;;13.20;100.00;97071.67;110083;1246;59744;-72
2023/06/03 03:24:51;;;;;;;;;;;;;;;13.23;100.00;97078.27;110246;1244;59750;-72
2023/06/03 03:27:20;;;;;;;;;;;;;;;13.27;100.00;97078.63;110144;1242;71370;-72
2023/06/03 03:29:51;;;;;;;;;;;;;;;13.33;100.00;97081.59;110053;1245;69204;-71
2023/06/03 03:32:20;;;;;;;;;;;;;;;13.40;100.00;97088.96;110114;1241;68511;-71
2023/06/03 03:35:03;;;;;;;;;;;;;;;13.49;100.00;97093.98;110143;1241;59704;-71
2023/06/03 03:37:32;;;;;;;;;;;;;;;13.58;100.00;97097.00;110205;1244;59727;-72
2023/06/03 03:40:01;;;;;;;;;;;;;;;13.68;100.00;97103.63;110030;1245;71967;-72
2023/06/03 03:42:29;;;;;;;;;;;;;;;13.80;100.00;97106.62;110218;1244;69843;-71
2023/06/03 03:44:59;;;;;;;;;;;;;;;13.92;100.00;97106.92;110191;1242;69299;-72
2023/06/03 03:47:27;;;;;;;;;;;;;;;14.03;100.00;97111.66;110203;1242;59686;-72
2023/06/03 03:49:55;;;;;;;;;;;;;;;14.14;100.00;97115.36;110186;1244;59680;-72
2023/06/03 03:52:28;;;;;;;;;;;;;;;14.26;100.00;97115.11;110159;1245;70636;-73
2023/06/03 03:55:01;;;;;;;;;;;;;;;14.39;100.00;97116.91;109850;1245;69175;-72
2023/06/03 03:57:31;;;;;;;;;;;;;;;14.55;100.00;97118.25;109879;1246;68837;-72
2023/06/03 04:00:00;;;;;;;;;;;;;;;14.69;100.00;97118.17;109802;1244;59777;-72
2023/06/03 04:02:32;;;;;;;;;;;;;;;14.82;100.00;97119.27;110236;1244;59734;-71
2023/06/03 04:05:03;;;;;;;;;;;;;;;14.96;100.00;97118.95;110145;1241;71382;-73
2023/06/03 04:07:35;;;;;;;;;;;;;;;15.13;100.00;97124.05;109857;1245;69399;-72
2023/06/03 04:10:03;;;;;;;;;;;;;;;15.30;100.00;97123.56;110252;1244;69161;-72
2023/06/03 04:12:36;;;;;;;;;;;;;;;15.42;100.00;97127.01;110230;1245;59695;-72
2023/06/03 04:15:05;;;;;;;;;;;;;;;15.51;100.00;97130.52;110284;1241;59742;-72
2023/06/03 04:17:40;;;;;;;;;;;;;;;15.63;100.00;97130.42;110256;1241;71407;-71
2023/06/03 04:20:19;;;;;;;;;;;;;;;15.77;100.00;97131.70;110150;1244;69255;-70
2023/06/03 04:22:51;;;;;;;;;;;;;;;15.90;100.00;97134.95;109874;1244;69182;-71
2023/06/03 04:25:20;;;;;;;;;;;;;;;15.97;100.00;97139.39;110083;1245;59732;-71
2023/06/03 04:27:52;;;;;;;;;;;;;;;15.99;100.00;97135.30;109930;1245;59634;-71
2023/06/03 04:30:21;;;;;;;;;;;;;;;16.03;100.00;97143.73;110116;1247;71419;-72
2023/06/03 04:32:50;;;;;;;;;;;;;;;16.09;100.00;97142.26;110215;1243;69381;-73
2023/06/03 04:35:18;;;;;;;;;;;;;;;16.15;100.00;97152.39;110094;1241;68547;-72
2023/06/03 04:37:47;;;;;;;;;;;;;;;16.22;100.00;97149.71;110275;1243;59811;-71
2023/06/03 04:40:17;;;;;;;;;;;;;;;16.28;100.00;97152.83;110278;1245;59699;-72
2023/06/03 04:42:47;;;;;;;;;;;;;;;16.38;100.00;97153.56;110171;1245;71459;-73
2023/06/03 04:45:16;;;;;;;;;;;;;;;16.46;100.00;97159.98;110277;1243;69416;-70
2023/06/03 04:47:44;;;;;;;;;;;;;;;16.58;100.00;97163.02;110084;1244;69214;-71
2023/06/03 04:50:19;;;;;;;;;;;;;;;16.70;100.00;97162.89;109721;1241;59808;-72
2023/06/03 04:52:49;;;;;;;;;;;;;;;16.81;100.00;97168.06;109820;1245;60122;-72
2023/06/03 04:55:17;;;;;;;;;;;;;;;16.94;100.00;97171.39;110097;1244;71410;-73
2023/06/03 04:57:50;;;;;;;;;;;;;;;17.05;100.00;97169.50;110108;1245;68466;-72
2023/06/03 05:00:19;;;;;;;;;;;;;;;17.07;100.00;97168.35;109771;1245;69786;-73
2023/06/03 05:02:59;;;;;;;;;;;;;;;17.20;100.00;97167.39;110194;1244;59683;-73
2023/06/03 05:05:30;;;;;;;;;;;;;;;17.36;100.00;97167.27;109934;1241;59791;-73
2023/06/03 05:07:57;;;;;;;;;;;;;;;17.59;100.00;97165.60;109910;1242;70718;-72
2023/06/03 05:10:27;;;;;;;;;;;;;;;17.86;100.00;97173.38;110126;1241;69825;-72
2023/06/03 05:12:57;;;;;;;;;;;;;;;18.13;100.00;97174.90;110204;1251;69284;-71
2023/06/03 05:15:27;;;;;;;;;;;;;;;18.42;98.31;97176.14;110202;1243;59731;-73
2023/06/03 05:17:56;;;;;;;;;;;;;;;18.66;94.24;97183.02;110226;1244;59699;-73
2023/06/03 05:20:24;;;;;;;;;;;;;;;18.91;93.32;97177.88;110130;1241;72127;-72
2023/06/03 05:22:53;;;;;;;;;;;;;;;19.13;92.33;97175.40;110147;1241;69191;-73
2023/06/03 05:25:22;;;;;;;;;;;;;;;19.29;89.91;97181.44;110164;1243;69218;-71
2023/06/03 05:27:50;;;;;;;;;;;;;;;19.20;86.50;97178.58;109881;1245;59744;-71
2023/06/03 05:30:32;;;;;;;;;;;;;;;19.05;87.63;97187.52;110277;1241;59739;-72
2023/06/03 05:33:00;;;;;;;;;;;;;;;18.89;87.04;97186.69;110271;1242;72356;-73
2023/06/03 05:35:28;;;;;;;;;;;;;;;18.74;87.01;97188.73;110232;1242;70089;-72
2023/06/03 05:37:56;;;;;;;;;;;;;;;18.64;88.63;97189.71;109816;1245;69898;-73
2023/06/03 05:40:24;;;;;;;;;;;;;;;18.56;89.21;97193.14;110138;1245;59744;-70
2023/06/03 05:42:55;;;;;;;;;;;;;;;18.51;89.07;97196.14;110085;1244;59741;-71
2023/06/03 05:45:22;;;;;;;;;;;;;;;18.49;88.51;97194.86;110100;1241;71804;-71
2023/06/03 05:47:51;;;;;;;;;;;;;;;18.50;89.35;97198.59;110140;1242;69664;-69
2023/06/03 05:50:19;;;;;;;;;;;;;;;18.54;89.50;97199.95;110083;1244;69792;-70
2023/06/03 05:52:47;;;;;;;;;;;;;;;18.54;88.07;97199.91;110140;1241;59744;-72
2023/06/03 05:55:15;;;;;;;;;;;;;;;18.62;86.97;97204.55;110243;1241;59747;-71
2023/06/03 05:57:43;;;;;;;;;;;;;;;18.72;86.38;97209.67;110221;1241;70964;-71
2023/06/03 06:00:11;;;;;;;;;;;;;;;18.82;85.33;97208.38;110090;1244;69149;-71
2023/06/03 06:02:41;;;;;;;;;;;;;;;18.89;86.04;97213.08;110103;1244;69255;-71
2023/06/03 06:05:10;;;;;;;;;;;;;;;18.93;84.61;97215.88;110333;1245;59721;-71
2023/06/03 06:07:37;;;;;;;;;;;;;;;18.97;84.23;97214.34;110282;1245;59719;-70
2023/06/03 06:10:05;;;;;;;;;;;;;;;19.03;82.97;97214.38;110299;1243;72434;-72
2023/06/03 06:12:33;;;;;;;;;;;;;;;19.13;82.86;97215.83;110115;1244;69587;-72
2023/06/03 06:15:01;;;;;;;;;;;;;;;19.32;80.63;97221.21;110127;1245;68431;-71
2023/06/03 06:17:30;;;;;;;;;;;;;;;19.51;79.06;97214.10;110102;1244;59706;-71
2023/06/03 06:19:59;;;;;;;;;;;;;;;19.68;76.08;97217.67;110122;1243;60110;-72
2023/06/03 06:22:27;;;;;;;;;;;;;;;19.77;74.31;97218.80;110091;1244;71641;-72
2023/06/03 06:24:54;;;;;;;;;;;;;;;19.94;74.30;97221.45;110236;1243;69783;-71
2023/06/03 06:27:23;;;;;;;;;;;;;;;20.10;73.81;97217.69;109778;1245;69949;-70
2023/06/03 06:29:51;;;;;;;;;;;;;;;20.29;71.34;97218.09;110136;1244;59748;-71
2023/06/03 06:32:23;;;;;;;;;;;;;;;20.43;71.36;97219.71;110139;1244;59763;-71
2023/06/03 06:34:52;;;;;;;;;;;;;;;20.62;70.53;97224.23;110115;1244;71558;-70
2023/06/03 06:37:20;;;;;;;;;;;;;;;20.87;70.72;97226.63;110149;1244;69821;-72
2023/06/03 06:39:49;;;;;;;;;;;;;;;21.22;70.83;97227.61;110248;1244;69421;-71
2023/06/03 06:42:30;;;;;;;;;;;;;;;21.58;68.65;97223.26;110090;1241;59693;-72
2023/06/03 06:45:13;;;;;;;;;;;;;;;21.75;67.59;97218.55;109864;1245;59656;-72
2023/06/03 06:47:41;;;;;;;;;;;;;;;21.99;67.74;97220.09;110172;1243;71411;-70
2023/06/03 06:50:18;;;;;;;;;;;;;;;22.26;66.96;97215.73;109742;1245;69825;-70
2023/06/03 06:52:46;;;;;;;;;;;;;;;22.50;65.68;97218.83;109789;1243;69831;-71
2023/06/03 06:55:23;;;;;;;;;;;;;;;22.70;64.47;97216.48;110202;1244;59750;-69
2023/06/03 06:57:54;;;;;;;;;;;;;;;22.76;63.55;97215.98;110114;1245;59614;-72
2023/06/03 07:00:21;;;;;;;;;;;;;;;22.86;62.40;97217.41;109990;1241;72114;-71
2023/06/03 07:02:48;;;;;;;;;;;;;;;22.89;61.61;97226.61;110237;1241;68582;-70
2023/06/03 07:05:16;;;;;;;;;;;;;;;23.03;61.78;97225.63;110123;1244;68859;-71
2023/06/03 07:07:47;;;;;;;;;;;;;;;23.19;60.65;97228.86;109864;1245;59735;-73
2023/06/03 07:10:19;;;;;;;;;;;;;;;23.31;59.43;97231.27;110584;1241;59747;-72
2023/06/03 07:12:51;;;;;;;;;;;;;;;23.52;59.65;97233.60;110149;1243;70615;-72
2023/06/03 07:15:20;;;;;;;;;;;;;;;23.52;59.09;97228.55;110210;1241;69510;-72
2023/06/03 07:17:56;;;;;;;;;;;;;;;23.66;59.18;97237.00;110144;1244;69159;-71
2023/06/03 07:20:34;;;;;;;;;;;;;;;23.90;58.99;97237.61;110283;1245;59744;-72
2023/06/03 07:23:07;;;;;;;;;;;;;;;24.11;57.92;97234.89;110280;1248;59599;-72
2023/06/03 07:25:38;;;;;;;;;;;;;;;24.33;55.78;97228.66;110217;1242;71745;-70
2023/06/03 07:28:10;;;;;;;;;;;;;;;24.49;54.88;97229.48;109802;1245;69861;-72
2023/06/03 07:30:38;;;;;;;;;;;;;;;24.71;56.15;97233.81;109938;1243;67591;-70
2023/06/03 07:33:22;;;;;;;;;;;;;;;24.71;53.51;97238.50;110125;1244;59766;-72
2023/06/03 07:35:56;;;;;;;;;;;;;;;24.15;53.43;97236.92;109873;1241;59680;-71
2023/06/03 07:38:39;;;;;;;;;;;;;;;23.97;54.68;97235.79;110026;1246;71786;-71
2023/06/03 07:41:09;;;;;;;;;;;;;;;24.12;56.08;97238.38;110231;1241;69867;-72
2023/06/03 07:43:40;;;;;;;;;;;;;;;23.98;55.49;97244.29;110291;1244;69189;-72
2023/06/03 07:46:08;;;;;;;;;;;;;;;23.77;56.64;97244.42;110162;1244;59703;-72
2023/06/03 07:48:37;;;;;;;;;;;;;;;23.59;56.37;97245.99;110284;1243;59675;-71
2023/06/03 07:51:08;;;;;;;;;;;;;;;23.38;56.10;97246.86;110203;1244;71430;-70
2023/06/03 07:53:36;;;;;;;;;;;;;;;23.37;56.39;97247.72;110133;1243;69385;-71
2023/06/03 07:56:08;;;;;;;;;;;;;;;23.71;56.15;97246.23;110156;1245;69440;-70
2023/06/03 07:58:36;;;;;;;;;;;;;;;24.03;55.04;97245.99;110097;1245;59765;-72
2023/06/03 08:01:04;;;;;;;;;;;;;;;23.99;55.04;97246.52;110385;1244;59676;-71
2023/06/03 08:03:32;;;;;;;;;;;;;;;23.94;55.09;97244.40;110052;1245;72011;-71
2023/06/03 08:06:00;;;;;;;;;;;;;;;23.72;54.55;97248.04;110041;1241;69294;-71
2023/06/03 08:08:30;;;;;;;;;;;;;;;23.52;55.25;97247.59;110088;1248;69987;-71
2023/06/03 08:10:57;;;;;;;;;;;;;;;23.47;55.56;97251.84;110123;1245;59678;-71
2023/06/03 08:13:25;;;;;;;;;;;;;;;23.32;56.18;97254.83;110254;1241;59758;-70
2023/06/03 08:15:52;;;;;;;;;;;;;;;23.20;57.05;97253.48;110157;1241;71789;-72
2023/06/03 08:18:26;;;;;;;;;;;;;;;23.13;57.54;97257.69;110432;1241;67727;-71
2023/06/03 08:20:54;;;;;;;;;;;;;;;23.04;57.65;97266.36;110242;1243;68480;-72
2023/06/03 08:23:22;;;;;;;;;;;;;;;23.15;57.54;97262.66;110563;1242;59665;-70
2023/06/03 08:25:50;;;;;;;;;;;;;;;23.31;56.25;97265.27;110418;1245;59624;-72
2023/06/03 08:28:18;;;;;;;;;;;;;;;23.61;57.56;97264.81;110158;1244;69982;-71
2023/06/03 08:30:45;;;;;;;;;;;;;;;23.93;56.97;97260.25;110215;1245;69238;-71
2023/06/03 08:33:13;;;;;;;;;;;;;;;24.03;56.02;97259.42;110238;1241;69827;-72
2023/06/03 08:35:43;;;;;;;;;;;;;;;24.02;54.87;97261.56;110246;1244;59770;-71
2023/06/03 08:38:10;;;;;;;;;;;;;;;24.13;54.66;97262.26;110218;1245;59740;-71
2023/06/03 08:40:40;;;;;;;;;;;;;;;24.12;54.37;97261.15;110273;1242;71589;-71
2023/06/03 08:43:07;;;;;;;;;;;;;;;24.19;53.88;97262.23;110158;1243;69200;-71
2023/06/03 08:45:38;;;;;;;;;;;;;;;24.08;53.95;97262.45;110158;1241;69287;-71
2023/06/03 08:48:07;;;;;;;;;;;;;;;24.12;54.29;97261.42;110126;1245;59738;-71
2023/06/03 08:50:36;;;;;;;;;;;;;;;24.37;54.11;97258.63;110175;1241;59685;-71
2023/06/03 08:53:08;;;;;;;;;;;;;;;24.89;54.31;97260.60;110257;1241;70668;-70
2023/06/03 08:55:38;;;;;;;;;;;;;;;25.35;51.63;97261.69;110299;1241;68528;-72
2023/06/03 08:58:38;;;;;;;;;;;;;;;25.58;50.23;97260.40;110356;1241;68712;-70
2023/06/03 09:01:06;;;;;;;;;;;;;;;25.86;49.02;97264.09;110040;1243;59728;-70
2023/06/03 09:03:36;;;;;;;;;;;;;;;26.11;48.44;97263.12;110323;1250;59657;-71
2023/06/03 09:06:05;;;;;;;;;;;;;;;26.37;48.00;97259.61;110330;1244;70587;-71
2023/06/03 09:08:36;;;;;;;;;;;;;;;26.36;47.23;97259.58;110220;1241;68494;-70
2023/06/03 09:11:05;;;;;;;;;;;;;;;25.97;48.19;97260.71;110291;1241;69222;-71
2023/06/03 09:13:33;;;;;;;;;;;;;;;25.98;48.87;97259.88;110419;1241;59758;-71
2023/06/03 09:16:02;;;;;;;;;;;;;;;26.18;46.73;97261.06;110350;1244;59646;-70
2023/06/03 09:18:29;;;;;;;;;;;;;;;26.26;47.04;97258.14;110255;1242;71911;-71
2023/06/03 09:20:57;;;;;;;;;;;;;;;26.68;45.59;97254.67;110339;1244;68490;-71
2023/06/03 09:23:26;;;;;;;;;;;;;;;27.01;46.58;97256.94;110376;1241;69784;-70
2023/06/03 09:25:53;;;;;;;;;;;;;;;27.28;45.48;97255.40;110445;1244;59714;-72
2023/06/03 09:28:20;;;;;;;;;;;;;;;27.57;45.42;97258.12;110356;1241;59770;-71
2023/06/03 09:30:49;;;;;;;;;;;;;;;27.56;42.89;97259.86;110248;1244;71299;-70
2023/06/03 09:33:16;;;;;;;;;;;;;;;27.57;43.16;97257.45;110208;1243;69754;-70
2023/06/03 09:36:04;;;;;;;;;;;;;;;27.64;43.71;97260.48;110282;1243;69234;-70
2023/06/03 09:38:51;;;;;;;;;;;;;;;27.87;42.76;97260.15;110408;1241;59657;-71
2023/06/03 09:41:19;;;;;;;;;;;;;;;27.94;43.65;97259.83;110127;1241;59699;-71
2023/06/03 09:43:54;;;;;;;;;;;;;;;27.71;42.21;97259.52;110363;1242;71283;-71
2023/06/03 09:46:21;;;;;;;;;;;;;;;27.56;41.56;97260.11;110259;1244;69266;-71
2023/06/03 09:48:49;;;;;;;;;;;;;;;27.63;42.08;97256.11;110089;1242;68310;-71
2023/06/03 09:51:16;;;;;;;;;;;;;;;27.48;41.74;97254.59;110165;1244;59741;-70
2023/06/03 09:53:44;;;;;;;;;;;;;;;27.34;41.94;97252.02;110206;1244;59688;-71
2023/06/03 09:56:28;;;;;;;;;;;;;;;27.14;41.84;97252.30;110330;1241;71442;-71
2023/06/03 09:59:14;;;;;;;;;;;;;;;26.46;43.79;97250.08;110363;1241;68492;-71
2023/06/03 10:01:43;;;;;;;;;;;;;;;26.42;44.46;97251.27;110364;1244;69282;-71
2023/06/03 10:04:10;;;;;;;;;;;;;;;26.87;44.38;97248.59;110336;1241;59722;-71
2023/06/03 10:06:38;;;;;;;;;;;;;;;27.13;42.61;97251.82;110625;1243;59731;-70
2023/06/03 10:09:22;;;;;;;;;;;;;;;26.99;43.14;97245.48;110352;1244;71761;-70
2023/06/03 10:11:50;;;;;;;;;;;;;;;26.71;44.03;97242.38;110772;1241;69713;-70
2023/06/03 10:14:25;;;;;;;;;;;;;;;26.60;43.57;97239.02;110944;1242;70246;-70
2023/06/03 10:17:04;;;;;;;;;;;;;;;26.37;44.14;97236.56;110667;1243;59702;-70
2023/06/03 10:19:36;;;;;;;;;;;;;;;26.06;43.72;97238.38;110788;1244;59599;-71
2023/06/03 10:22:04;;;;;;;;;;;;;;;25.97;43.88;97241.30;110630;1241;71334;-70
2023/06/03 10:24:32;;;;;;;;;;;;;;;25.73;43.77;97244.02;110590;1241;69005;-68
2023/06/03 10:27:00;;;;;;;;;;;;;;;25.52;44.60;97242.79;110782;1244;68553;-70
2023/06/03 10:29:31;;;;;;;;;;;;;;;25.70;44.87;97242.54;110537;1244;59735;-68
2023/06/03 10:32:00;;;;;;;;;;;;;;;25.79;44.90;97243.88;110213;1244;59631;-69
2023/06/03 10:34:29;;;;;;;;;;;;;;;26.14;44.46;97240.14;110142;1244;71978;-69
2023/06/03 10:37:02;;;;;;;;;;;;;;;26.04;44.31;97236.70;110184;1244;69282;-69
2023/06/03 10:39:32;;;;;;;;;;;;;;;26.04;44.86;97235.79;110119;1244;69285;-69
2023/06/03 10:42:01;;;;;;;;;;;;;;;26.19;44.84;97230.31;110122;1242;59753;-69
2023/06/03 10:44:28;;;;;;;;;;;;;;;26.40;43.24;97230.48;109621;1241;691846;-69
2023/06/03 10:47:05;;;;;;;;;;;;;;;26.39;43.76;97223.81;109897;1241;71842;-68
2023/06/03 10:49:44;;;;;;;;;;;;;;;26.52;44.11;97218.30;110168;1241;70670;-69
2023/06/03 10:52:15;;;;;;;;;;;;;;;26.73;44.02;97220.54;110126;1241;68374;-69
2023/06/03 10:55:01;;;;;;;;;;;;;;;26.79;42.59;97223.04;110100;1248;59735;-68
2023/06/03 10:57:45;;;;;;;;;;;;;;;26.76;41.91;97218.48;110164;1244;59609;-69
2023/06/03 11:00:12;;;;;;;;;;;;;;;26.89;41.46;97216.02;110119;1244;70817;-71
2023/06/03 11:02:58;;;;;;;;;;;;;;;26.97;40.87;97217.52;110131;1244;69734;-70
2023/06/03 11:05:26;;;;;;;;;;;;;;;27.25;40.61;97211.29;110145;1244;69847;-70
2023/06/03 11:07:54;;;;;;;;;;;;;;;27.34;41.45;97207.16;110125;1244;59819;-68
2023/06/03 11:10:39;;;;;;;;;;;;;;;27.35;42.01;97204.88;110127;1244;59633;-70
2023/06/03 11:13:08;;;;;;;;;;;;;;;27.15;41.92;97202.63;110152;1244;70368;-69
2023/06/03 11:15:54;;;;;;;;;;;;;;;27.24;42.09;97200.16;110151;1244;69220;-71
2023/06/03 11:18:22;;;;;;;;;;;;;;;27.29;41.37;97196.85;110163;1241;69885;-69
2023/06/03 11:20:50;;;;;;;;;;;;;;;27.43;41.36;97198.02;110155;1244;60106;-71
2023/06/03 11:23:40;;;;;;;;;;;;;;;27.65;41.17;97198.14;110120;1244;59687;-70
2023/06/03 11:26:26;;;;;;;;;;;;;;;27.69;40.82;97203.79;110119;1241;71918;-72
2023/06/03 11:28:54;;;;;;;;;;;;;;;27.15;40.47;97202.15;110132;1243;68881;-70
2023/06/03 11:31:21;;;;;;;;;;;;;;;27.33;41.54;97199.86;110264;1244;69257;-70
2023/06/03 11:34:07;;;;;;;;;;;;;;;27.57;41.44;97200.96;110124;1244;59701;-67
2023/06/03 11:36:46;;;;;;;;;;;;;;;27.29;41.57;97193.70;110150;1241;59705;-69
2023/06/03 11:39:14;;;;;;;;;;;;;;;27.70;41.67;97199.61;110126;1244;70585;-66
2023/06/03 11:42:01;;;;;;;;;;;;;;;27.64;41.74;97197.73;110148;1244;69777;-66
2023/06/03 11:44:30;;;;;;;;;;;;;;;27.44;43.74;97198.71;110118;1244;70206;-69
2023/06/03 11:47:01;;;;;;;;;;;;;;;27.17;44.67;97201.34;110099;1244;59654;-66
2023/06/03 11:49:30;;;;;;;;;;;;;;;27.10;43.45;97201.79;110402;1243;59656;-66
2023/06/03 11:51:58;;;;;;;;;;;;;;;26.65;44.13;97199.52;110186;1242;71012;-67
2023/06/03 11:54:26;;;;;;;;;;;;;;;26.31;46.18;97201.67;110205;1244;69862;-66
2023/06/03 11:56:54;;;;;;;;;;;;;;;26.05;48.86;97208.19;110124;1241;69149;-68
2023/06/03 11:59:25;;;;;;;;;;;;;;;25.92;49.72;97213.76;110139;1241;59767;-69
2023/06/03 12:02:00;;;;;;;;;;;;;;;25.61;53.27;97231.40;109933;1246;59634;-65
2023/06/03 12:04:28;;;;;;;;;;;;;;;25.40;56.00;97240.06;110173;1244;71392;-69
2023/06/03 12:06:56;;;;;;;;;;;;;;;24.83;60.01;97243.59;110129;1242;68547;-68
2023/06/03 12:09:26;;;;;;;;;;;;;;;24.07;65.85;97249.02;110176;1241;68725;-71
2023/06/03 12:11:54;;;;;;;;;;;;;;;23.30;68.18;97252.09;110173;1243;59743;-72
2023/06/03 12:14:26;;;;;;;;;;;;;;;22.62;70.80;97263.15;110156;1244;59690;-71
2023/06/03 12:16:57;;;;;;;;;;;;;;;22.20;68.04;97261.38;110127;1244;70488;-72
2023/06/03 12:19:24;;;;;;;;;;;;;;;21.56;72.91;97259.91;110150;1244;70235;-72
2023/06/03 12:21:56;;;;;;;;;;;;;;;21.03;78.94;97263.47;110316;1244;69325;-71
2023/06/03 12:24:28;;;;;;;;;;;;;;;20.76;79.65;97261.24;110249;1244;59654;-71
2023/06/03 12:26:56;;;;;;;;;;;;;;;20.43;85.21;97252.48;110170;1241;59711;-71
2023/06/03 12:29:24;;;;;;;;;;;;;;;20.31;87.09;97253.11;110214;1244;71317;-71
2023/06/03 12:31:59;;;;;;;;;;;;;;;20.14;88.11;97254.16;110148;1244;70199;-72
2023/06/03 12:34:34;;;;;;;;;;;;;;;19.92;92.00;97254.77;110170;1244;69756;-72
2023/06/03 12:37:05;;;;;;;;;;;;;;;19.90;96.85;97249.92;110168;1244;59782;-72
2023/06/03 12:39:42;;;;;;;;;;;;;;;20.00;91.23;97248.45;110279;1244;59669;-71
2023/06/03 12:42:09;;;;;;;;;;;;;;;20.13;88.91;97249.19;110166;1241;71229;-69
2023/06/03 12:44:47;;;;;;;;;;;;;;;20.30;87.28;97241.34;110162;1244;69857;-69
2023/06/03 12:47:15;;;;;;;;;;;;;;;20.47;81.29;97236.40;110153;1241;69189;-68
2023/06/03 12:49:44;;;;;;;;;;;;;;;20.57;79.59;97237.77;110113;1244;59747;-69
2023/06/03 12:52:16;;;;;;;;;;;;;;;20.76;75.89;97238.55;110187;1244;59702;-70